createdAt,value
2022-11-26T10:03:36.821Z,86.73
2022-11-26T10:06:26.079Z,83.77
2022-11-26T10:09:20.996Z,93.13
2022-11-26T10:12:06.649Z,93.28
2022-11-26T10:14:52.348Z,87.73
2022-11-26T10:17:50.282Z,88.90
2022-11-26T10:20:23.316Z,90.17
2022-11-26T10:22:57.405Z,83.43
2022-11-26T10:25:28.599Z,88.93
2022-11-26T10:27:59.495Z,94.10
2022-11-26T10:30:29.248Z,93.47
2022-11-26T10:32:58.493Z,93.53
2022-11-26T10:35:29.155Z,89.43
2022-11-26T10:37:57.617Z,94.90
2022-11-26T10:40:27.598Z,86.27
2022-11-26T10:43:10.567Z,97.00
2022-11-26T10:45:54.017Z,90.10
2022-11-26T10:48:26.508Z,90.38
2022-11-26T10:51:07.546Z,87.28
2022-11-26T10:53:56.503Z,84.85
2022-11-26T10:56:31.955Z,87.40
2022-11-26T10:59:04.577Z,86.75
2022-11-26T11:01:39.672Z,85.78
2022-11-26T11:04:39.595Z,83.55
2022-11-26T11:07:11.798Z,86.13
2022-11-26T11:09:39.499Z,81.10
2022-11-26T11:12:17.955Z,80.60
2022-11-26T11:14:46.337Z,86.33
2022-11-26T11:17:43.529Z,76.15
2022-11-26T11:20:16.809Z,72.43
2022-11-26T11:22:47.798Z,73.53
2022-11-26T11:36:02.874Z,65.85
2022-11-26T11:38:36.385Z,66.73
2022-11-26T11:41:21.659Z,65.72
2022-11-26T11:43:49.568Z,65.90
2022-11-26T11:46:31.999Z,59.47
2022-11-26T14:24:55.119Z,38.63
2022-11-26T14:27:34.579Z,34.57
2022-11-26T14:30:07.418Z,39.80
2022-11-26T14:32:39.799Z,38.53
2022-11-26T14:35:30.611Z,38.63
2022-11-26T14:37:59.930Z,38.47
2022-11-26T14:40:36.927Z,31.77
2022-11-26T14:43:19.517Z,35.80
2022-11-26T14:45:58.809Z,37.67
2022-11-26T14:48:28.482Z,35.80
2022-11-26T14:50:58.403Z,33.17
2022-11-26T14:53:29.242Z,35.80
2022-11-26T14:55:57.190Z,33.80
2022-11-26T14:58:55.707Z,35.23
2022-11-26T15:01:25.655Z,30.23
2022-11-26T15:03:59.877Z,39.00
2022-11-26T15:06:38.574Z,29.43
2022-11-26T15:09:12.671Z,40.70
2022-11-26T15:11:49.450Z,34.10
2022-11-26T15:14:31.834Z,36.07
2022-11-26T15:17:02.769Z,35.03
2022-11-26T15:19:34.708Z,36.47
2022-11-26T15:34:57.421Z,34.83
2022-11-26T15:37:24.548Z,31.77
2022-11-26T15:40:21.375Z,35.20
2022-11-26T15:42:49.821Z,29.70
2022-11-26T15:45:20.065Z,35.77
2022-11-26T15:47:55.379Z,32.13
2022-11-26T15:50:32.611Z,30.57
2022-11-26T15:53:14.486Z,35.93
2022-11-26T15:55:47.190Z,34.67
2022-11-26T15:58:26.480Z,33.73
2022-11-26T16:00:57.625Z,43.30
2022-11-26T16:03:45.722Z,31.30
2022-11-26T16:06:35.300Z,33.43
2022-11-26T16:09:07.664Z,32.03
2022-11-26T16:11:37.113Z,42.13
2022-11-26T16:14:33.505Z,34.43
2022-11-26T16:17:08.303Z,34.50
2022-11-26T16:19:36.720Z,31.63
2022-11-26T16:22:06.018Z,41.60
2022-11-26T16:24:42.678Z,28.17
2022-11-26T16:27:18.522Z,35.23
2022-11-26T16:29:45.683Z,25.83
2022-11-26T16:32:17.681Z,28.23
2022-11-26T16:34:45.320Z,33.53
2022-11-26T16:37:25.683Z,30.33
2022-11-26T16:40:00.946Z,32.47
2022-11-26T16:42:30.268Z,31.37
2022-11-26T16:45:01.279Z,34.80
2022-11-26T16:47:35.406Z,30.07
2022-11-26T16:52:43.731Z,42.27
2022-11-26T16:55:15.735Z,36.83
2022-11-26T16:57:46.544Z,36.77
2022-11-26T17:00:22.187Z,33.53
2022-11-26T17:02:49.928Z,32.30
2022-11-26T17:05:17.990Z,29.90
2022-11-26T17:07:49.188Z,31.30
2022-11-26T17:10:21.821Z,34.33
2022-11-26T17:12:49.982Z,28.43
2022-11-26T17:15:17.323Z,34.47
2022-11-26T17:17:44.632Z,33.70
2022-11-26T17:20:17.951Z,37.60
2022-11-26T17:22:45.510Z,37.53
2022-11-26T17:25:13.355Z,46.63
2022-11-26T17:27:41.681Z,37.27
2022-11-26T17:30:17.298Z,38.00
2022-11-26T17:32:44.165Z,39.10
2022-11-26T17:35:11.355Z,35.23
2022-11-26T17:37:38.276Z,35.40
2022-11-26T17:40:12.076Z,30.23
2022-11-26T17:42:39.048Z,35.13
2022-11-26T17:45:06.614Z,34.37
2022-11-26T17:47:33.453Z,40.70
2022-11-26T17:50:00.326Z,33.47
2022-11-26T17:52:27.284Z,34.20
2022-11-26T17:54:54.137Z,34.83
2022-11-26T17:57:22.952Z,34.40
2022-11-26T17:59:49.891Z,36.13
2022-11-26T18:02:16.753Z,35.77
2022-11-26T18:04:43.630Z,33.23
2022-11-26T18:07:13.154Z,33.97
2022-11-26T18:09:41.626Z,32.93
2022-11-26T18:12:19.041Z,36.23
2022-11-26T18:14:50.203Z,38.03
2022-11-26T18:17:17.088Z,38.93
